createdAt,value
2019-01-02T00:00:07.368Z,0.00
2019-01-02T00:01:07.364Z,0.00
2019-01-02T00:02:07.325Z,0.00
2019-01-02T00:03:07.317Z,0.00
2019-01-02T00:04:07.306Z,0.00
2019-01-02T00:05:07.294Z,0.00
2019-01-02T00:06:07.321Z,0.00
2019-01-02T00:07:07.273Z,0.00
2019-01-02T00:08:07.261Z,0.00
2019-01-02T00:09:07.249Z,0.00
2019-01-02T00:10:07.239Z,0.00
2019-01-02T00:11:07.265Z,0.00
2019-01-02T00:12:07.221Z,0.00
2019-01-02T00:13:07.214Z,0.00
2019-01-02T00:14:07.194Z,0.00
2019-01-02T00:15:07.184Z,0.00
2019-01-02T00:16:07.175Z,0.00
2019-01-02T00:17:07.190Z,0.00
2019-01-02T00:18:07.152Z,0.00
2019-01-02T00:19:07.145Z,0.00
2019-01-02T00:20:07.139Z,0.00
2019-01-02T00:21:07.119Z,0.00
2019-01-02T00:22:07.145Z,0.00
2019-01-02T00:23:07.098Z,0.00
2019-01-02T00:24:07.086Z,0.00
2019-01-02T00:25:07.075Z,0.00
2019-01-02T00:26:07.097Z,0.00
2019-01-02T00:27:07.077Z,0.00
2019-01-02T00:28:07.043Z,0.00
2019-01-02T00:29:07.033Z,0.00
2019-01-02T00:30:07.021Z,0.00
2019-01-02T00:31:07.011Z,0.00
2019-01-02T00:32:07.035Z,0.00
2019-01-02T00:33:06.988Z,0.00
2019-01-02T00:34:06.977Z,0.00
2019-01-02T00:35:06.968Z,0.00
2019-01-02T00:36:06.960Z,0.00
2019-01-02T00:37:06.977Z,0.00
2019-01-02T00:38:06.935Z,0.00
2019-01-02T00:39:06.924Z,0.00
2019-01-02T00:40:06.913Z,0.00
2019-01-02T00:41:06.900Z,0.00
2019-01-02T00:42:06.917Z,0.00
2019-01-02T00:43:06.881Z,0.00
2019-01-02T00:44:06.877Z,0.00
2019-01-02T00:45:06.859Z,0.00
2019-01-02T00:46:06.865Z,0.00
2019-01-02T00:47:06.859Z,0.00
2019-01-02T00:48:06.827Z,0.00
2019-01-02T00:49:06.816Z,0.00
2019-01-02T00:50:06.822Z,0.00
2019-01-02T00:51:06.793Z,0.00
2019-01-02T00:52:06.808Z,0.00
2019-01-02T00:53:06.772Z,0.00
2019-01-02T00:54:06.761Z,0.00
2019-01-02T00:55:06.750Z,0.00
2019-01-02T00:56:06.744Z,0.00
2019-01-02T00:57:06.751Z,0.00
2019-01-02T00:58:06.718Z,0.00
2019-01-02T00:59:06.706Z,0.00
2019-01-02T01:00:06.695Z,0.00
2019-01-02T01:01:06.683Z,0.00
2019-01-02T01:02:06.721Z,0.00
2019-01-02T01:03:06.661Z,0.00
2019-01-02T01:04:06.652Z,0.00
2019-01-02T01:05:06.643Z,0.00
2019-01-02T01:06:06.633Z,0.00
2019-01-02T01:07:06.787Z,0.00
2019-01-02T01:08:06.627Z,0.00
2019-01-02T01:09:06.596Z,0.00
2019-01-02T01:10:06.590Z,0.00
2019-01-02T01:11:06.576Z,0.00
2019-01-02T01:12:06.570Z,0.00
2019-01-02T01:13:06.579Z,0.00
2019-01-02T01:14:06.546Z,0.00
2019-01-02T01:15:06.542Z,0.00
2019-01-02T01:16:06.519Z,0.00
2019-01-02T01:17:06.508Z,0.00
2019-01-02T01:18:06.523Z,0.00
2019-01-02T01:19:06.486Z,0.00
2019-01-02T01:20:06.477Z,0.00
2019-01-02T01:21:06.474Z,0.00
2019-01-02T01:22:06.458Z,0.00
2019-01-02T01:23:06.470Z,0.00
2019-01-02T01:24:06.434Z,0.00
2019-01-02T01:25:06.421Z,0.00
2019-01-02T01:26:06.411Z,0.00
2019-01-02T01:27:06.410Z,0.00
2019-01-02T01:28:06.415Z,0.00
2019-01-02T01:29:06.379Z,0.00
2019-01-02T01:30:06.417Z,0.00
2019-01-02T01:31:06.359Z,0.00
2019-01-02T01:32:06.352Z,0.00
2019-01-02T01:33:06.363Z,0.00
2019-01-02T01:34:06.323Z,0.00
2019-01-02T01:35:06.313Z,0.00
2019-01-02T01:36:06.303Z,0.00
2019-01-02T01:37:06.297Z,0.00
2019-01-02T01:38:06.308Z,0.00
2019-01-02T01:39:06.289Z,0.00
2019-01-02T01:40:06.261Z,0.00
2019-01-02T01:41:06.248Z,0.00
2019-01-02T01:42:06.237Z,0.00
2019-01-02T01:43:06.250Z,0.00
2019-01-02T01:44:06.214Z,0.00
2019-01-02T01:45:06.214Z,0.00
2019-01-02T01:46:06.192Z,0.00
2019-01-02T01:47:06.181Z,0.00
2019-01-02T01:48:06.198Z,0.00
2019-01-02T01:49:06.160Z,0.00
2019-01-02T01:50:06.157Z,0.00
2019-01-02T01:51:06.147Z,0.00
2019-01-02T01:52:06.142Z,0.00
2019-01-02T01:53:06.142Z,0.00
2019-01-02T01:54:06.106Z,0.00
2019-01-02T01:55:06.097Z,0.00
2019-01-02T01:56:06.085Z,0.00
2019-01-02T01:57:06.076Z,0.00
2019-01-02T01:58:06.099Z,0.00
2019-01-02T01:59:06.053Z,0.00
2019-01-02T02:00:06.041Z,0.00
2019-01-02T02:01:06.030Z,0.00
2019-01-02T02:02:06.024Z,0.00
2019-01-02T02:03:06.023Z,0.00
2019-01-02T02:04:06.022Z,0.00
2019-01-02T02:05:05.987Z,0.00
2019-01-02T02:06:05.977Z,0.00
2019-01-02T02:07:05.968Z,0.00
2019-01-02T02:08:05.959Z,0.00
2019-01-02T02:09:05.971Z,0.00
2019-01-02T02:10:05.932Z,0.00
2019-01-02T02:11:05.922Z,0.00
2019-01-02T02:12:05.912Z,0.00
2019-01-02T02:13:05.900Z,0.00
2019-01-02T02:14:05.912Z,0.00
2019-01-02T02:15:05.910Z,0.00
2019-01-02T02:16:05.870Z,0.00
2019-01-02T02:17:05.858Z,0.00
2019-01-02T02:18:05.844Z,0.00
2019-01-02T02:19:05.858Z,0.00
2019-01-02T02:20:05.825Z,0.00
2019-01-02T02:21:05.828Z,0.00
2019-01-02T02:22:05.802Z,0.00
2019-01-02T02:23:05.792Z,0.00
2019-01-02T02:24:05.809Z,0.00
2019-01-02T02:25:05.770Z,0.00
2019-01-02T02:26:05.762Z,0.00
2019-01-02T02:27:05.762Z,0.00
2019-01-02T02:28:05.739Z,0.00
2019-01-02T02:29:05.752Z,0.00
2019-01-02T02:30:05.716Z,0.00
2019-01-02T02:31:05.703Z,0.00
2019-01-02T02:32:05.695Z,0.00
2019-01-02T02:33:05.698Z,0.00
2019-01-02T02:34:05.696Z,0.00
2019-01-02T02:35:05.660Z,0.00
2019-01-02T02:36:05.664Z,0.00
2019-01-02T02:37:05.639Z,0.00
2019-01-02T02:38:05.627Z,0.00
2019-01-02T02:39:05.677Z,0.00
2019-01-02T02:40:05.605Z,0.00
2019-01-02T02:41:05.601Z,0.00
2019-01-02T02:42:05.595Z,0.00
2019-01-02T02:43:05.579Z,0.00
2019-01-02T02:44:05.602Z,0.00
2019-01-02T02:45:05.560Z,0.00
2019-01-02T02:46:05.562Z,0.00
2019-01-02T02:47:05.535Z,0.00
2019-01-02T02:48:05.520Z,0.00
2019-01-02T02:49:05.534Z,0.00
2019-01-02T02:50:05.496Z,0.00
2019-01-02T02:51:05.486Z,0.00
2019-01-02T02:52:05.485Z,0.00
2019-01-02T02:53:05.464Z,0.00
2019-01-02T02:54:05.492Z,0.00
2019-01-02T02:55:05.442Z,0.00
2019-01-02T02:56:05.433Z,0.00
2019-01-02T02:57:05.418Z,0.00
2019-01-02T02:58:05.441Z,0.00
2019-01-02T02:59:05.399Z,0.00
2019-01-02T03:00:05.411Z,0.00
2019-01-02T03:01:05.383Z,0.00
2019-01-02T03:02:05.366Z,0.00
2019-01-02T03:03:05.358Z,0.00
2019-01-02T03:04:05.361Z,0.00
2019-01-02T03:05:05.362Z,0.00
2019-01-02T03:06:05.323Z,0.00
2019-01-02T03:07:05.313Z,0.00
2019-01-02T03:08:05.298Z,0.00
2019-01-02T03:09:05.291Z,0.00
2019-01-02T03:10:05.302Z,0.00
2019-01-02T03:11:05.275Z,0.00
2019-01-02T03:12:05.257Z,0.00
2019-01-02T03:13:05.245Z,0.00
2019-01-02T03:14:05.238Z,0.00
2019-01-02T03:15:05.245Z,0.00
2019-01-02T03:16:05.213Z,0.00
2019-01-02T03:17:05.215Z,0.00
2019-01-02T03:18:05.193Z,0.00
2019-01-02T03:19:05.180Z,0.00
2019-01-02T03:20:05.192Z,0.00
2019-01-02T03:21:05.157Z,0.00
2019-01-02T03:22:05.146Z,0.00
2019-01-02T03:23:05.151Z,0.00
2019-01-02T03:24:05.131Z,0.00
2019-01-02T03:25:05.137Z,0.00
2019-01-02T03:26:05.101Z,0.00
2019-01-02T03:27:05.095Z,0.00
2019-01-02T03:28:05.085Z,0.00
2019-01-02T03:29:05.078Z,0.00
2019-01-02T03:30:05.087Z,0.00
2019-01-02T03:31:05.050Z,0.00
2019-01-02T03:32:05.042Z,0.00
2019-01-02T03:33:05.025Z,0.00
2019-01-02T03:34:05.015Z,0.00
2019-01-02T03:35:05.052Z,0.00
2019-01-02T03:36:04.993Z,0.00
2019-01-02T03:37:04.982Z,0.00
2019-01-02T03:38:04.972Z,0.00
2019-01-02T03:39:04.962Z,0.00
2019-01-02T03:40:04.978Z,0.00
2019-01-02T03:41:04.944Z,0.00
2019-01-02T03:42:04.932Z,0.00
2019-01-02T03:43:04.918Z,0.00
2019-01-02T03:44:04.907Z,0.00
2019-01-02T03:45:04.930Z,0.00
2019-01-02T03:46:04.902Z,0.00
2019-01-02T03:47:04.874Z,0.00
2019-01-02T03:48:04.864Z,0.00
2019-01-02T03:49:04.851Z,0.00
2019-01-02T03:50:04.842Z,0.00
2019-01-02T03:51:04.855Z,0.00
2019-01-02T03:52:04.827Z,0.00
2019-01-02T03:53:04.819Z,0.00
2019-01-02T03:54:04.799Z,0.00
2019-01-02T03:55:04.787Z,0.00
2019-01-02T03:56:04.804Z,0.00
2019-01-02T03:57:04.764Z,0.00
2019-01-02T03:58:04.756Z,0.00
2019-01-02T03:59:04.753Z,0.00
2019-01-02T04:00:04.732Z,0.00
2019-01-02T04:01:04.747Z,0.00
2019-01-02T04:02:04.712Z,0.00
2019-01-02T04:03:04.707Z,0.00
2019-01-02T04:04:04.689Z,0.00
2019-01-02T04:05:04.693Z,0.00
2019-01-02T04:06:04.694Z,0.00
2019-01-02T04:07:04.661Z,0.00
2019-01-02T04:08:04.645Z,0.00
2019-01-02T04:09:04.634Z,0.00
2019-01-02T04:10:04.624Z,0.00
2019-01-02T04:11:04.654Z,0.00
2019-01-02T04:12:04.604Z,0.00
2019-01-02T04:13:04.607Z,0.00
2019-01-02T04:14:04.583Z,0.00
2019-01-02T04:15:04.571Z,0.00
2019-01-02T04:16:04.585Z,0.00
2019-01-02T04:17:04.564Z,0.00
2019-01-02T04:18:04.538Z,0.00
2019-01-02T04:19:04.530Z,0.00
2019-01-02T04:20:04.517Z,0.00
2019-01-02T04:21:04.534Z,0.00
2019-01-02T04:22:04.494Z,0.00
2019-01-02T04:23:04.488Z,0.00
2019-01-02T04:24:04.472Z,0.00
2019-01-02T04:25:04.461Z,0.00
2019-01-02T04:26:04.475Z,0.00
2019-01-02T04:27:04.440Z,0.00
2019-01-02T04:28:04.427Z,0.00
2019-01-02T04:29:04.428Z,0.00
2019-01-02T04:30:04.410Z,0.00
2019-01-02T04:31:04.434Z,0.00
2019-01-02T04:32:04.390Z,0.00
2019-01-02T04:33:04.373Z,0.00
2019-01-02T04:34:04.368Z,0.00
2019-01-02T04:35:04.363Z,0.00
2019-01-02T04:36:04.345Z,0.00
2019-01-02T04:37:04.355Z,0.00
2019-01-02T04:38:04.321Z,0.00
2019-01-02T04:39:04.312Z,0.00
2019-01-02T04:40:04.298Z,0.00
2019-01-02T04:41:04.313Z,0.00
2019-01-02T04:42:04.300Z,0.00
2019-01-02T04:43:04.269Z,0.00
2019-01-02T04:44:04.259Z,0.00
2019-01-02T04:45:04.243Z,0.00
2019-01-02T04:46:04.233Z,0.00
2019-01-02T04:47:04.266Z,0.00
2019-01-02T04:48:04.210Z,0.00
2019-01-02T04:49:04.227Z,0.00
2019-01-02T04:50:04.191Z,0.00
2019-01-02T04:51:04.180Z,0.00
2019-01-02T04:52:04.205Z,0.00
2019-01-02T04:53:04.178Z,0.00
2019-01-02T04:54:04.147Z,0.00
2019-01-02T04:55:04.137Z,0.00
2019-01-02T04:56:04.124Z,0.00
2019-01-02T04:57:04.116Z,0.00
2019-01-02T04:58:04.136Z,0.00
2019-01-02T04:59:04.120Z,0.00
2019-01-02T05:00:04.080Z,0.00
2019-01-02T05:01:04.093Z,0.00
2019-01-02T05:02:04.062Z,0.00
2019-01-02T05:03:04.070Z,0.00
2019-01-02T05:04:04.038Z,0.00
2019-01-02T05:05:04.034Z,0.00
2019-01-02T05:06:04.018Z,0.00
2019-01-02T05:07:04.006Z,0.00
2019-01-02T05:08:04.018Z,0.00
2019-01-02T05:09:03.982Z,0.00
2019-01-02T05:10:03.971Z,0.00
2019-01-02T05:11:03.984Z,0.00
2019-01-02T05:12:03.951Z,0.00
2019-01-02T05:13:03.964Z,0.00
2019-01-02T05:14:03.928Z,0.00
2019-01-02T05:15:03.917Z,0.00
2019-01-02T05:16:03.924Z,0.00
2019-01-02T05:17:03.896Z,0.00
2019-01-02T05:18:03.909Z,0.00
2019-01-02T05:19:03.873Z,0.00
2019-01-02T05:20:03.862Z,0.00
2019-01-02T05:21:03.851Z,0.00
2019-01-02T05:22:03.848Z,0.00
2019-01-02T05:23:03.877Z,0.00
2019-01-02T05:24:03.832Z,0.00
2019-01-02T05:25:03.811Z,0.00
2019-01-02T05:26:03.801Z,0.00
2019-01-02T05:27:03.788Z,0.00
2019-01-02T05:28:03.791Z,0.00
2019-01-02T05:29:03.787Z,0.00
2019-01-02T05:30:03.753Z,0.00
2019-01-02T05:31:03.743Z,0.00
2019-01-02T05:32:03.734Z,0.00
2019-01-02T05:33:03.720Z,0.00
2019-01-02T05:34:03.741Z,0.00
2019-01-02T05:35:03.699Z,0.00
2019-01-02T05:36:03.690Z,0.00
2019-01-02T05:37:03.678Z,0.00
2019-01-02T05:38:03.666Z,0.00
2019-01-02T05:39:03.681Z,0.00
2019-01-02T05:40:03.661Z,0.00
2019-01-02T05:41:03.639Z,0.00
2019-01-02T05:42:03.627Z,0.00
2019-01-02T05:43:03.616Z,0.00
2019-01-02T05:44:03.624Z,0.00
2019-01-02T05:45:03.588Z,0.00
2019-01-02T05:46:03.588Z,0.00
2019-01-02T05:47:03.571Z,0.00
2019-01-02T05:48:03.557Z,0.00
2019-01-02T05:49:03.579Z,0.00
2019-01-02T05:50:03.539Z,0.00
2019-01-02T05:51:03.527Z,0.00
2019-01-02T05:52:03.535Z,0.00
2019-01-02T05:53:03.507Z,0.00
2019-01-02T05:54:03.493Z,0.00
2019-01-02T05:55:03.504Z,0.00
2019-01-02T05:56:03.471Z,0.00
2019-01-02T05:57:03.460Z,0.00
2019-01-02T05:58:03.477Z,0.00
2019-01-02T05:59:03.438Z,0.00
2019-01-02T06:00:03.452Z,0.00
2019-01-02T06:01:03.418Z,0.00
2019-01-02T06:02:03.408Z,0.00
2019-01-02T06:03:03.395Z,0.00
2019-01-02T06:04:03.400Z,0.00
2019-01-02T06:05:03.405Z,0.00
2019-01-02T06:06:03.370Z,0.00
2019-01-02T06:07:03.351Z,0.00
2019-01-02T06:08:03.339Z,0.00
2019-01-02T06:09:03.330Z,0.00
2019-01-02T06:10:03.325Z,0.00
2019-01-02T06:11:03.331Z,0.00
2019-01-02T06:12:03.303Z,0.00
2019-01-02T06:13:03.286Z,0.00
2019-01-02T06:14:03.276Z,0.00
2019-01-02T06:15:03.263Z,0.00
2019-01-02T06:16:03.283Z,0.00
2019-01-02T06:17:03.241Z,0.00
2019-01-02T06:18:03.239Z,0.00
2019-01-02T06:19:03.217Z,0.00
2019-01-02T06:20:03.207Z,0.00
2019-01-02T06:21:03.221Z,0.00
2019-01-02T06:22:03.209Z,0.00
2019-01-02T06:23:03.176Z,0.00
2019-01-02T06:24:03.163Z,0.00
2019-01-02T06:25:03.175Z,0.00
2019-01-02T06:26:03.181Z,0.00
2019-01-02T06:27:03.133Z,0.00
2019-01-02T06:28:03.123Z,0.00
2019-01-02T06:29:03.124Z,0.00
2019-01-02T06:30:03.098Z,0.00
2019-01-02T06:31:03.090Z,0.00
2019-01-02T06:32:03.111Z,0.00
2019-01-02T06:33:03.070Z,0.00
2019-01-02T06:34:03.056Z,0.00
2019-01-02T06:35:03.055Z,0.00
2019-01-02T06:36:03.032Z,0.00
2019-01-02T06:37:03.045Z,0.00
2019-01-02T06:38:03.013Z,0.00
2019-01-02T06:39:03.000Z,0.00
2019-01-02T06:40:02.989Z,0.00
2019-01-02T06:41:02.999Z,0.00
2019-01-02T06:42:02.992Z,0.00
2019-01-02T06:43:02.964Z,0.00
2019-01-02T06:44:02.947Z,0.00
2019-01-02T06:45:02.936Z,0.00
2019-01-02T06:46:02.925Z,0.00
2019-01-02T06:47:02.976Z,0.00
2019-01-02T06:48:02.902Z,0.00
2019-01-02T06:49:02.894Z,0.00
2019-01-02T06:50:02.882Z,0.00
2019-01-02T06:51:02.870Z,0.00
2019-01-02T06:52:02.861Z,0.00
2019-01-02T06:53:02.903Z,0.00
2019-01-02T06:54:02.861Z,0.00
2019-01-02T06:55:02.844Z,0.00
2019-01-02T06:56:02.846Z,0.00
2019-01-02T06:57:02.804Z,0.00
2019-01-02T06:58:02.829Z,0.00
2019-01-02T06:59:02.809Z,0.00
2019-01-02T07:00:02.774Z,0.00
2019-01-02T07:01:02.810Z,0.00
2019-01-02T07:02:02.753Z,4.00
2019-01-02T07:03:02.894Z,4.00
2019-01-02T07:04:02.728Z,4.00
2019-01-02T07:05:02.728Z,4.00
2019-01-02T07:06:02.706Z,0.00
2019-01-02T07:07:02.699Z,4.00
2019-01-02T07:08:02.706Z,8.00
2019-01-02T07:09:02.677Z,8.00
2019-01-02T07:10:02.668Z,12.00
2019-01-02T07:11:02.662Z,12.00
2019-01-02T07:12:02.661Z,12.00
2019-01-02T07:13:02.669Z,16.00
2019-01-02T07:14:02.629Z,16.00
2019-01-02T07:15:02.609Z,24.00
2019-01-02T07:16:02.602Z,28.00
2019-01-02T07:17:02.588Z,32.00
2019-01-02T07:18:02.585Z,36.00
2019-01-02T07:19:02.596Z,44.00
2019-01-02T07:20:02.556Z,44.00
2019-01-02T07:21:02.544Z,48.00
2019-01-02T07:22:02.546Z,52.00
2019-01-02T07:23:02.522Z,52.00
2019-01-02T07:24:02.541Z,60.00
2019-01-02T07:25:02.499Z,72.00
2019-01-02T07:26:02.490Z,84.00
2019-01-02T07:27:02.477Z,96.00
2019-01-02T07:28:02.469Z,116.00
2019-01-02T07:29:02.476Z,120.00
2019-01-02T07:30:02.458Z,132.00
2019-01-02T07:31:02.435Z,140.00
2019-01-02T07:32:02.430Z,148.00
2019-01-02T07:33:02.419Z,156.00
2019-01-02T07:34:02.424Z,164.00
2019-01-02T07:35:02.396Z,176.00
2019-01-02T07:36:02.386Z,196.00
2019-01-02T07:37:02.372Z,208.00
2019-01-02T07:38:02.362Z,224.00
2019-01-02T07:39:02.372Z,240.00
2019-01-02T07:40:02.338Z,256.00
2019-01-02T07:41:02.326Z,276.00
2019-01-02T07:42:02.329Z,296.00
2019-01-02T07:43:02.303Z,316.00
2019-01-02T07:44:02.330Z,332.00
2019-01-02T07:45:02.290Z,332.00
2019-01-02T07:46:02.275Z,332.00
2019-01-02T07:47:02.259Z,336.00
2019-01-02T07:48:02.271Z,332.00
2019-01-02T07:49:02.241Z,336.00
2019-01-02T07:50:02.253Z,356.00
2019-01-02T07:51:02.245Z,368.00
2019-01-02T07:52:02.211Z,388.00
2019-01-02T07:53:02.198Z,408.00
2019-01-02T07:54:02.193Z,428.00
2019-01-02T07:55:02.204Z,456.00
2019-01-02T07:56:02.165Z,488.00
2019-01-02T07:57:02.152Z,512.00
2019-01-02T07:58:02.148Z,536.00
2019-01-02T07:59:02.138Z,544.00
2019-01-02T08:00:02.164Z,544.00
2019-01-02T08:01:02.110Z,544.00
2019-01-02T08:02:02.108Z,552.00
2019-01-02T08:03:02.086Z,548.00
2019-01-02T08:04:02.083Z,492.00
2019-01-02T08:05:02.092Z,404.00
2019-01-02T08:06:02.070Z,328.00
2019-01-02T08:07:02.043Z,296.00
2019-01-02T08:08:02.038Z,284.00
2019-01-02T08:09:02.021Z,276.00
2019-01-02T08:10:02.033Z,272.00
2019-01-02T08:11:02.000Z,268.00
2019-01-02T08:12:02.002Z,248.00
2019-01-02T08:13:01.986Z,252.00
2019-01-02T08:14:01.966Z,228.00
2019-01-02T08:15:03.236Z,204.00
2019-01-02T08:16:01.944Z,192.00
2019-01-02T08:17:01.992Z,196.00
2019-01-02T08:18:01.925Z,192.00
2019-01-02T08:19:01.911Z,228.00
2019-01-02T08:20:01.943Z,288.00
2019-01-02T08:21:01.890Z,376.00
2019-01-02T08:22:01.880Z,536.00
2019-01-02T08:23:01.868Z,628.00
2019-01-02T08:24:01.872Z,724.00
2019-01-02T08:25:01.847Z,788.00
2019-01-02T08:26:01.864Z,872.00
2019-01-02T08:27:01.824Z,996.00
2019-01-02T08:28:01.813Z,1096.00
2019-01-02T08:29:01.820Z,1120.00
2019-01-02T08:30:01.803Z,1052.00
2019-01-02T08:31:01.806Z,1004.00
2019-01-02T08:32:01.772Z,944.00
2019-01-02T08:33:01.759Z,1072.00
2019-01-02T08:34:01.747Z,1196.00
2019-01-02T08:35:01.736Z,1256.00
2019-01-02T08:36:01.762Z,1236.00
2019-01-02T08:37:01.715Z,1364.00
2019-01-02T08:38:01.704Z,1488.00
2019-01-02T08:39:01.693Z,1624.00
2019-01-02T08:40:01.683Z,1612.00
2019-01-02T08:41:01.705Z,1416.00
2019-01-02T08:42:01.673Z,1300.00
2019-01-02T08:43:01.649Z,1416.00
2019-01-02T08:44:01.638Z,1552.00
2019-01-02T08:45:01.638Z,1620.00
2019-01-02T08:46:01.618Z,1672.00
2019-01-02T08:47:01.628Z,1728.00
2019-01-02T08:48:01.601Z,1720.00
2019-01-02T08:49:01.584Z,1764.00
2019-01-02T08:50:02.336Z,1764.00
2019-01-02T08:51:01.562Z,1816.00
2019-01-02T08:52:01.581Z,1904.00
2019-01-02T08:53:01.541Z,1980.00
2019-01-02T08:54:01.531Z,1996.00
2019-01-02T08:55:01.522Z,2108.00
2019-01-02T08:56:01.505Z,2420.00
2019-01-02T08:57:01.518Z,2396.00
2019-01-02T08:58:01.483Z,2412.00
2019-01-02T08:59:01.473Z,2448.00
2019-01-02T09:00:01.467Z,2596.00
2019-01-02T09:01:01.454Z,2648.00
2019-01-02T09:02:01.467Z,2712.00
2019-01-02T09:03:01.429Z,2668.00
2019-01-02T09:04:01.420Z,3120.00
2019-01-02T09:05:01.406Z,3392.00
2019-01-02T09:06:01.418Z,3100.00
2019-01-02T09:07:01.415Z,2912.00
2019-01-02T09:08:01.374Z,2632.00
2019-01-02T09:09:01.363Z,2768.00
2019-01-02T09:10:01.354Z,2608.00
2019-01-02T09:11:01.340Z,2484.00
2019-01-02T09:12:01.380Z,2284.00
2019-01-02T09:13:01.330Z,2192.00
2019-01-02T09:14:01.311Z,2248.00
2019-01-02T09:15:01.297Z,2300.00
2019-01-02T09:16:01.285Z,2416.00
2019-01-02T09:17:01.275Z,2548.00
2019-01-02T09:18:01.310Z,2564.00
2019-01-02T09:19:01.253Z,2616.00
2019-01-02T09:20:01.242Z,2716.00
2019-01-02T09:21:01.232Z,2776.00
2019-01-02T09:22:01.217Z,2832.00
2019-01-02T09:23:01.230Z,2840.00
2019-01-02T09:24:01.200Z,2736.00
2019-01-02T09:25:01.198Z,2672.00
2019-01-02T09:26:01.173Z,2668.00
2019-01-02T09:27:01.162Z,2436.00
2019-01-02T09:28:01.187Z,2416.00
2019-01-02T09:29:01.142Z,2504.00
2019-01-02T09:30:01.129Z,2672.00
2019-01-02T09:31:01.126Z,2676.00
2019-01-02T09:32:01.107Z,2296.00
2019-01-02T09:33:01.095Z,2184.00
2019-01-02T09:34:01.119Z,2224.00
2019-01-02T09:35:01.075Z,2180.00
2019-01-02T09:36:01.061Z,1716.00
2019-01-02T09:37:01.068Z,1540.00
2019-01-02T09:38:01.041Z,1756.00
2019-01-02T09:39:01.051Z,1916.00
2019-01-02T09:40:01.018Z,1680.00
2019-01-02T09:41:01.011Z,1632.00
2019-01-02T09:42:01.001Z,1668.00
2019-01-02T09:43:01.011Z,1624.00
2019-01-02T09:44:00.997Z,1876.00
2019-01-02T09:45:00.962Z,2172.00
2019-01-02T09:46:00.951Z,2592.00
2019-01-02T09:47:00.939Z,3128.00
2019-01-02T09:48:00.992Z,3732.00
2019-01-02T09:49:00.951Z,3652.00
2019-01-02T09:50:00.926Z,3188.00
2019-01-02T09:51:00.897Z,2924.00
2019-01-02T09:52:00.884Z,2844.00
2019-01-02T09:53:00.887Z,2916.00
2019-01-02T09:54:00.897Z,2940.00
2019-01-02T09:55:01.596Z,3224.00
2019-01-02T09:56:00.842Z,3544.00
2019-01-02T09:57:00.829Z,3504.00
2019-01-02T09:58:00.816Z,3484.00
2019-01-02T09:59:00.806Z,3688.00
2019-01-02T10:00:00.828Z,3412.00
2019-01-02T10:01:00.795Z,3020.00
2019-01-02T10:02:00.772Z,2904.00
2019-01-02T10:03:00.760Z,3096.00
2019-01-02T10:04:00.752Z,3348.00
2019-01-02T10:05:00.763Z,3768.00
2019-01-02T10:06:00.736Z,4556.00
2019-01-02T10:07:00.730Z,5200.00
2019-01-02T10:08:00.711Z,5356.00
2019-01-02T10:09:00.696Z,5524.00
2019-01-02T10:10:00.708Z,4888.00
2019-01-02T10:11:00.672Z,4304.00
2019-01-02T10:12:00.667Z,3820.00
2019-01-02T10:13:00.665Z,3460.00
2019-01-02T10:14:00.641Z,3420.00
2019-01-02T10:15:00.667Z,3380.00
2019-01-02T10:16:00.619Z,3348.00
2019-01-02T10:17:00.605Z,2988.00
2019-01-02T10:18:00.607Z,2800.00
2019-01-02T10:19:00.586Z,2704.00
2019-01-02T10:20:00.574Z,2652.00
2019-01-02T10:21:00.586Z,2396.00
2019-01-02T10:22:00.550Z,2216.00
2019-01-02T10:23:00.540Z,1868.00
2019-01-02T10:24:00.599Z,1624.00
2019-01-02T10:25:00.530Z,1440.00
2019-01-02T10:26:00.529Z,1404.00
2019-01-02T10:27:00.497Z,1404.00
2019-01-02T10:28:00.484Z,1772.00
2019-01-02T10:29:00.474Z,1856.00
2019-01-02T10:30:00.462Z,1788.00
2019-01-02T10:31:00.515Z,1904.00
2019-01-02T10:32:00.441Z,2500.00
2019-01-02T10:33:00.430Z,1920.00
2019-01-02T10:34:00.418Z,1452.00
2019-01-02T10:35:00.408Z,1596.00
2019-01-02T10:36:00.413Z,1696.00
2019-01-02T10:37:00.436Z,2112.00
2019-01-02T10:38:00.374Z,2140.00
2019-01-02T10:39:00.383Z,2152.00
2019-01-02T10:40:00.351Z,2776.00
2019-01-02T10:41:00.341Z,3388.00
2019-01-02T10:42:00.356Z,3364.00
2019-01-02T10:43:00.333Z,3232.00
2019-01-02T10:44:00.307Z,3100.00
2019-01-02T10:45:00.303Z,2580.00
2019-01-02T10:46:00.327Z,2260.00
2019-01-02T10:47:00.297Z,1940.00
2019-01-02T10:48:00.263Z,1684.00
2019-01-02T10:49:00.263Z,1556.00
2019-01-02T10:50:00.257Z,1484.00
2019-01-02T10:51:00.236Z,1532.00
2019-01-02T10:52:00.254Z,1772.00
2019-01-02T10:53:00.207Z,2160.00
2019-01-02T10:54:00.195Z,2752.00
2019-01-02T10:55:00.190Z,3472.00
2019-01-02T10:56:00.181Z,3728.00
2019-01-02T10:57:00.185Z,4116.00
2019-01-02T10:58:00.152Z,5168.00
2019-01-02T10:59:00.140Z,5416.00
2019-01-02T11:00:00.165Z,5868.00
2019-01-02T11:01:00.138Z,5604.00
2019-01-02T11:02:00.157Z,5888.00
2019-01-02T11:03:00.097Z,5724.00
2019-01-02T11:04:00.084Z,5672.00
2019-01-02T11:05:00.120Z,5684.00
2019-01-02T11:06:00.063Z,5504.00
2019-01-02T11:07:00.059Z,5552.00
2019-01-02T11:08:00.063Z,5768.00
2019-01-02T11:09:00.030Z,6016.00
2019-01-02T11:10:00.020Z,6404.00
2019-01-02T11:11:00.011Z,6340.00
2019-01-02T11:11:59.997Z,6128.00
2019-01-02T11:13:00.016Z,6128.00
2019-01-02T11:13:59.981Z,6408.00
2019-01-02T11:14:59.965Z,6744.00
2019-01-02T11:15:59.952Z,6784.00
2019-01-02T11:16:59.948Z,6568.00
2019-01-02T11:17:59.954Z,7000.00
2019-01-02T11:18:59.919Z,6332.00
2019-01-02T11:19:59.907Z,6544.00
2019-01-02T11:20:59.911Z,5344.00
2019-01-02T11:21:59.894Z,5212.00
2019-01-02T11:22:59.930Z,5184.00
2019-01-02T11:23:59.886Z,5436.00
2019-01-02T11:24:59.854Z,5248.00
2019-01-02T11:25:59.842Z,4732.00
2019-01-02T11:26:59.830Z,5256.00
2019-01-02T11:27:59.824Z,4468.00
2019-01-02T11:28:59.833Z,4308.00
2019-01-02T11:29:59.821Z,5316.00
2019-01-02T11:30:59.792Z,5320.00
2019-01-02T11:31:59.775Z,5364.00
2019-01-02T11:32:59.766Z,5452.00
2019-01-02T11:33:59.781Z,5372.00
2019-01-02T11:34:59.743Z,5372.00
2019-01-02T11:35:59.739Z,5412.00
2019-01-02T11:36:59.726Z,5404.00
2019-01-02T11:37:59.725Z,5388.00
2019-01-02T11:38:59.726Z,5388.00
2019-01-02T11:39:59.704Z,5428.00
2019-01-02T11:40:59.676Z,5448.00
2019-01-02T11:41:59.661Z,5484.00
2019-01-02T11:42:59.658Z,5600.00
2019-01-02T11:43:59.663Z,5680.00
2019-01-02T11:44:59.631Z,5784.00
2019-01-02T11:45:59.617Z,5748.00
2019-01-02T11:46:59.613Z,5876.00
2019-01-02T11:47:59.609Z,5880.00
2019-01-02T11:48:59.621Z,5968.00
2019-01-02T11:49:59.574Z,6180.00
2019-01-02T11:50:59.564Z,6392.00
2019-01-02T11:51:59.554Z,5976.00
2019-01-02T11:52:59.539Z,7284.00
2019-01-02T11:53:59.611Z,7308.00
2019-01-02T11:54:59.521Z,6152.00
2019-01-02T11:55:59.506Z,5460.00
2019-01-02T11:56:59.493Z,5724.00
2019-01-02T11:57:59.485Z,6396.00
2019-01-02T11:58:59.495Z,6772.00
2019-01-02T11:59:59.461Z,6380.00
2019-01-02T12:00:59.458Z,6352.00
2019-01-02T12:01:59.440Z,5088.00
2019-01-02T12:02:59.427Z,4340.00
2019-01-02T12:03:59.439Z,4308.00
2019-01-02T12:04:59.409Z,4444.00
2019-01-02T12:05:59.394Z,4696.00
2019-01-02T12:06:59.410Z,4896.00
2019-01-02T12:07:59.374Z,5036.00
2019-01-02T12:08:59.396Z,5000.00
2019-01-02T12:09:59.349Z,4944.00
2019-01-02T12:10:59.339Z,5096.00
2019-01-02T12:11:59.327Z,4984.00
2019-01-02T12:12:59.319Z,4816.00
2019-01-02T12:13:59.307Z,4828.00
2019-01-02T12:14:59.318Z,4868.00
2019-01-02T12:15:59.285Z,4676.00
2019-01-02T12:16:59.272Z,4448.00
2019-01-02T12:17:59.262Z,4420.00
2019-01-02T12:18:59.253Z,4604.00
2019-01-02T12:19:59.267Z,4968.00
2019-01-02T12:20:59.228Z,5184.00
2019-01-02T12:21:59.216Z,4972.00
2019-01-02T12:22:59.204Z,4816.00
2019-01-02T12:23:59.195Z,4956.00
2019-01-02T12:24:59.211Z,4488.00
2019-01-02T12:25:59.170Z,4640.00
2019-01-02T12:26:59.161Z,5076.00
2019-01-02T12:27:59.149Z,4492.00
2019-01-02T12:28:59.136Z,3592.00
2019-01-02T12:29:59.151Z,3304.00
2019-01-02T12:30:59.122Z,3184.00
2019-01-02T12:31:59.103Z,3480.00
2019-01-02T12:32:59.093Z,3392.00
2019-01-02T12:33:59.084Z,3112.00
2019-01-02T12:34:59.104Z,3084.00
2019-01-02T12:35:59.060Z,3016.00
2019-01-02T12:36:59.062Z,3052.00
2019-01-02T12:37:59.044Z,3216.00
2019-01-02T12:38:59.026Z,3372.00
2019-01-02T12:39:59.016Z,3632.00
2019-01-02T12:40:59.035Z,4008.00
2019-01-02T12:41:58.996Z,4512.00
2019-01-02T12:42:58.992Z,4828.00
2019-01-02T12:43:58.969Z,4740.00
2019-01-02T12:44:58.959Z,4540.00
2019-01-02T12:45:58.971Z,4552.00
2019-01-02T12:46:58.937Z,4684.00